Time;durP1;ratioP1;P1;durP2;ratioP2;P2;SDS_P1;SDS_P2;PMS_P1;PMS_P2;Temp;Humidity;BMP_temperature;BMP_pressure;BME280_temperature;BME280_humidity;BME280_pressure;Samples;Min_cycle;Max_cycle;Signal;HPM_P1;HPM_P2
2022/07/21 00:00:54;;;;;;;19.43;15.67;;;;;;;21.62;69.43;101502.91;5090474;28;20718;-73
2022/07/21 00:03:20;;;;;;;20.33;16.73;;;;;;;21.58;69.85;101501.22;5090575;28;20176;-74
2022/07/21 00:05:45;;;;;;;20.70;15.53;;;;;;;21.50;69.98;101500.47;5090557;28;20647;-75
2022/07/21 00:08:12;;;;;;;21.67;15.37;;;;;;;21.44;69.94;101504.91;5071443;28;20215;-74
2022/07/21 00:10:38;;;;;;;20.43;15.57;;;;;;;21.45;69.58;101507.50;5081150;28;20208;-73
2022/07/21 00:13:04;;;;;;;17.53;14.87;;;;;;;21.45;69.50;101509.25;5087352;28;20186;-74
2022/07/21 00:15:30;;;;;;;18.80;14.97;;;;;;;21.47;69.14;101504.88;5089889;28;20647;-74
2022/07/21 00:17:56;;;;;;;20.00;14.03;;;;;;;21.40;69.09;101498.91;5089901;28;20191;-74
2022/07/21 00:20:22;;;;;;;18.00;14.20;;;;;;;21.38;68.50;101497.19;5090152;28;20229;-75
2022/07/21 00:22:48;;;;;;;18.40;14.10;;;;;;;21.32;68.56;101494.66;5089786;28;20185;-74
2022/07/21 00:25:14;;;;;;;19.93;13.77;;;;;;;21.33;68.63;101489.41;5089775;28;20180;-74
2022/07/21 00:27:40;;;;;;;18.27;13.63;;;;;;;21.28;68.38;101482.56;5066507;28;20231;-74
2022/07/21 00:30:08;;;;;;;19.07;13.77;;;;;;;21.23;68.68;101466.16;5089681;28;20204;-74
2022/07/21 00:32:34;;;;;;;17.97;13.37;;;;;;;21.18;68.75;101471.41;5089840;28;20267;-74
2022/07/21 00:34:59;;;;;;;17.57;13.10;;;;;;;21.19;68.64;101467.91;5089785;28;20614;-75
2022/07/21 00:37:26;;;;;;;15.33;12.87;;;;;;;21.16;68.19;101469.72;5071003;28;20188;-72
2022/07/21 00:39:53;;;;;;;15.97;12.67;;;;;;;21.11;68.73;101459.38;5089359;28;20219;-73
2022/07/21 00:42:27;;;;;;;15.40;12.17;;;;;;;21.09;68.41;101455.06;5089461;28;20192;-73
2022/07/21 00:44:53;;;;;;;17.30;12.67;;;;;;;21.05;68.18;101453.38;5070734;28;20595;-74
2022/07/21 00:47:23;;;;;;;15.47;12.17;;;;;;;21.09;67.77;101455.91;5104800;28;20200;-74
2022/07/21 00:49:50;;;;;;;14.90;11.80;;;;;;;21.10;68.05;101462.81;5089661;28;20196;-72
2022/07/21 00:52:16;;;;;;;15.03;12.43;;;;;;;21.05;68.20;101458.59;5089286;28;20203;-74
2022/07/21 00:54:42;;;;;;;16.67;11.80;;;;;;;21.05;68.08;101459.41;5089693;28;20185;-74
2022/07/21 00:57:08;;;;;;;15.20;11.93;;;;;;;21.00;68.46;101444.75;5088926;28;20659;-74
2022/07/21 00:59:34;;;;;;;14.63;12.17;;;;;;;20.95;68.79;101447.41;5089086;28;20432;-74
2022/07/21 01:01:59;;;;;;;13.67;11.53;;;;;;;20.93;68.68;101450.91;5054335;28;20204;-71
2022/07/21 01:04:26;;;;;;;15.97;12.17;;;;;;;20.90;68.65;101445.75;5089650;28;20177;-74
2022/07/21 01:06:53;;;;;;;15.43;11.90;;;;;;;20.83;68.87;101457.09;5088602;28;20212;-72
2022/07/21 01:09:19;;;;;;;14.23;11.93;;;;;;;20.80;68.91;101450.19;5089349;28;20208;-74
2022/07/21 01:11:45;;;;;;;16.90;11.47;;;;;;;20.81;68.84;101458.84;5089368;28;21020;-75
2022/07/21 01:14:11;;;;;;;16.77;12.03;;;;;;;20.77;68.95;101451.97;5089268;28;20184;-74
2022/07/21 01:16:36;;;;;;;17.13;11.60;;;;;;;20.71;68.81;101463.31;5088830;28;20215;-73
2022/07/21 01:19:02;;;;;;;15.77;11.23;;;;;;;20.71;68.86;101462.44;5089487;28;20212;-75
2022/07/21 01:21:29;;;;;;;13.80;10.73;;;;;;;20.65;69.24;101452.09;5070558;28;20270;-75
2022/07/21 01:23:55;;;;;;;17.57;11.53;;;;;;;20.63;69.23;101438.25;5089403;28;20227;-72
2022/07/21 01:26:21;;;;;;;16.80;10.83;;;;;;;20.63;69.68;101449.53;5088824;28;20219;-74
2022/07/21 01:28:46;;;;;;;12.63;11.03;;;;;;;20.65;68.82;101444.31;5088531;28;20725;-73
2022/07/21 01:31:12;;;;;;;15.90;10.67;;;;;;;20.65;69.03;101445.19;5088959;28;20185;-75
2022/07/21 01:33:37;;;;;;;11.73;10.23;;;;;;;20.63;68.83;101454.72;5089247;28;20173;-73
2022/07/21 01:36:03;;;;;;;15.43;11.33;;;;;;;20.64;69.05;101499.84;5088971;28;20180;-72
2022/07/21 01:41:31;;;;;;;15.97;11.37;;;;;;;20.31;71.01;101607.72;5088866;28;20190;-74
2022/07/21 01:44:02;;;;;;;12.50;10.00;;;;;;;20.31;71.00;101599.91;5071161;28;20181;-74
2022/07/21 01:46:30;;;;;;;13.10;11.13;;;;;;;20.38;71.64;101585.13;5088897;28;20176;-74
2022/07/21 01:48:56;;;;;;;17.83;11.90;;;;;;;20.41;71.91;101592.91;5089278;28;20215;-74
2022/07/21 01:51:22;;;;;;;15.77;11.40;;;;;;;20.38;73.07;101585.13;5071452;28;20184;-74
2022/07/21 01:53:47;;;;;;;14.43;11.27;;;;;;;20.42;73.96;101572.09;5075007;28;20271;-73
2022/07/21 01:56:13;;;;;;;16.27;11.40;;;;;;;20.39;74.22;101584.25;5092525;28;20271;-74
2022/07/21 01:58:39;;;;;;;16.07;12.00;;;;;;;20.37;74.48;101599.91;5092707;28;20337;-74
2022/07/21 02:01:04;;;;;;;15.43;12.40;;;;;;;20.33;74.66;101586.91;5092731;28;20189;-74
2022/07/21 02:03:30;;;;;;;17.97;12.97;;;;;;;20.32;75.16;101574.78;5092760;28;20179;-72
2022/07/21 02:06:03;;;;;;;17.63;12.73;;;;;;;20.33;75.43;101576.50;5092322;28;20224;-74
2022/07/21 02:08:29;;;;;;;19.03;13.10;;;;;;;20.29;75.26;101573.06;5092574;28;20306;-74
2022/07/21 02:10:54;;;;;;;19.90;12.97;;;;;;;20.27;75.90;101574.81;5092143;28;20306;-73
2022/07/21 02:13:20;;;;;;;17.97;12.77;;;;;;;20.29;75.61;101572.19;5092646;28;20223;-73
2022/07/21 02:15:45;;;;;;;16.63;13.43;;;;;;;20.25;76.21;101583.50;5092380;28;20279;-74
2022/07/21 02:18:11;;;;;;;15.10;13.00;;;;;;;20.25;75.57;101593.91;5092132;28;20225;-73
2022/07/21 02:20:36;;;;;;;18.43;12.77;;;;;;;20.24;75.97;101590.47;5074134;28;20578;-74
2022/07/21 02:23:01;;;;;;;14.30;12.30;;;;;;;20.21;76.36;101582.66;5092716;28;20192;-74
2022/07/21 02:25:27;;;;;;;18.43;12.63;;;;;;;20.13;76.97;101568.00;5087904;28;20192;-74
2022/07/21 02:27:52;;;;;;;18.73;12.57;;;;;;;20.12;76.72;101554.13;5091948;28;20200;-74
2022/07/21 02:30:18;;;;;;;18.60;12.63;;;;;;;20.07;76.67;101547.19;5092262;28;20211;-75
2022/07/21 02:32:43;;;;;;;16.63;12.93;;;;;;;20.04;77.13;101544.63;5092217;28;20185;-73
2022/07/21 02:35:09;;;;;;;17.70;13.03;;;;;;;20.01;77.47;101548.13;5091620;28;20673;-73
2022/07/21 02:37:34;;;;;;;19.57;13.27;;;;;;;20.02;77.25;101559.38;5091600;28;20674;-75
2022/07/21 02:40:00;;;;;;;17.70;13.07;;;;;;;19.96;78.05;101565.50;5091839;28;20316;-74
2022/07/21 02:42:25;;;;;;;19.43;12.87;;;;;;;19.93;78.33;101568.09;5091971;28;20595;-74
2022/07/21 02:44:51;;;;;;;16.10;12.83;;;;;;;19.91;78.67;101575.06;5073631;28;20627;-74
2022/07/21 02:47:16;;;;;;;18.93;14.03;;;;;;;19.92;78.83;101576.78;5073381;28;20222;-73
2022/07/21 02:49:42;;;;;;;19.87;14.43;;;;;;;19.91;79.13;101589.81;5073464;28;20370;-74
2022/07/21 02:52:07;;;;;;;20.90;15.07;;;;;;;19.88;79.70;101595.00;5091497;28;20176;-74
2022/07/21 02:54:32;;;;;;;21.33;14.00;;;;;;;19.86;80.17;101591.56;5091548;28;20184;-73
2022/07/21 02:56:58;;;;;;;23.13;15.50;;;;;;;19.83;80.28;101575.97;5091077;28;20198;-74
2022/07/21 02:59:23;;;;;;;24.43;14.70;;;;;;;19.80;80.70;101578.63;5056959;28;20583;-74
2022/07/21 03:01:49;;;;;;;22.63;15.83;;;;;;;19.79;80.73;101574.25;5091288;28;20605;-73
2022/07/21 03:04:14;;;;;;;24.33;16.10;;;;;;;19.75;81.66;101575.16;5091585;28;20188;-73
2022/07/21 03:06:42;;;;;;;25.13;16.13;;;;;;;19.78;81.15;101578.63;5072555;28;20189;-72
2022/07/21 03:09:08;;;;;;;23.97;16.17;;;;;;;19.78;82.04;101567.34;5091139;28;20221;-72
2022/07/21 03:11:34;;;;;;;22.63;15.87;;;;;;;19.74;82.48;101566.50;5090500;28;20184;-74
2022/07/21 03:13:59;;;;;;;27.33;16.17;;;;;;;19.74;82.57;101570.84;5073477;28;20272;-74
2022/07/21 03:16:25;;;;;;;21.20;14.87;;;;;;;19.72;82.38;101562.19;5091242;28;20246;-74
2022/07/21 03:18:50;;;;;;;26.73;15.67;;;;;;;19.75;82.83;101554.34;5091382;28;20243;-72
2022/07/21 03:21:16;;;;;;;20.73;15.17;;;;;;;19.71;83.31;101548.31;5091376;28;20186;-74
2022/07/21 03:23:45;;;;;;;23.77;15.63;;;;;;;19.70;83.30;101563.94;5091084;28;20721;-74
2022/07/21 03:26:12;;;;;;;21.70;15.03;;;;;;;19.69;83.55;101570.88;5106885;28;20658;-72
2022/07/21 03:28:38;;;;;;;22.57;15.27;;;;;;;19.72;83.70;101583.84;5091041;28;20212;-74
2022/07/21 03:31:04;;;;;;;23.47;15.67;;;;;;;19.70;83.84;101584.72;5072685;28;20203;-74
2022/07/21 03:33:29;;;;;;;25.67;15.63;;;;;;;19.75;83.54;101588.16;5091158;28;20600;-72
2022/07/21 03:35:56;;;;;;;20.57;14.33;;;;;;;19.77;83.51;101589.88;5091225;28;20267;-74
2022/07/21 03:38:21;;;;;;;20.53;13.30;;;;;;;19.79;83.68;101598.53;5090972;28;20553;-73
2022/07/21 03:40:47;;;;;;;16.43;12.83;;;;;;;19.82;83.57;101605.44;5091104;28;20224;-74
2022/07/21 03:43:12;;;;;;;22.07;12.70;;;;;;;19.78;84.19;101609.81;5090983;28;20192;-73
2022/07/21 03:45:38;;;;;;;23.20;12.37;;;;;;;19.76;84.63;101606.34;5090960;28;20206;-74
2022/07/21 03:48:06;;;;;;;18.60;11.43;;;;;;;19.79;84.89;101608.06;5072187;28;20299;-74
2022/07/21 03:50:32;;;;;;;17.37;11.07;;;;;;;19.80;85.25;101600.25;5090819;28;20626;-74
2022/07/21 03:52:58;;;;;;;18.57;10.57;;;;;;;19.82;84.89;101608.06;5072719;28;20671;-73
2022/07/21 03:55:24;;;;;;;18.50;10.37;;;;;;;19.82;85.17;101608.94;5072474;28;20192;-74
2022/07/21 03:57:55;;;;;;;17.90;9.73;;;;;;;19.82;85.52;101608.06;5090424;28;20184;-72
2022/07/21 04:00:34;;;;;;;17.73;9.27;;;;;;;19.84;85.18;101601.09;5090626;28;20257;-73
2022/07/21 04:03:00;;;;;;;15.30;8.57;;;;;;;19.85;84.86;101592.44;5072608;28;20176;-75
2022/07/21 04:05:26;;;;;;;17.87;9.17;;;;;;;19.88;84.88;101598.47;5072186;28;20191;-74
2022/07/21 04:07:53;;;;;;;17.67;9.40;;;;;;;19.90;84.45;101598.47;5090222;28;20211;-74
2022/07/21 04:10:21;;;;;;;15.20;8.53;;;;;;;19.94;84.28;101603.63;5089010;28;20727;-73
2022/07/21 04:12:49;;;;;;;16.27;8.73;;;;;;;19.97;84.09;101606.22;5090467;28;20786;-73
2022/07/21 04:15:14;;;;;;;15.10;8.67;;;;;;;20.00;83.70;101620.94;5089605;28;20208;-73
2022/07/21 04:17:40;;;;;;;19.07;8.47;;;;;;;20.06;83.46;101626.97;5072062;28;20223;-74
2022/07/21 04:20:07;;;;;;;12.23;8.00;;;;;;;20.12;83.28;101618.28;5090441;28;20627;-72
2022/07/21 04:22:33;;;;;;;14.13;8.03;;;;;;;20.16;82.79;101615.66;5090292;28;20233;-72
2022/07/21 04:24:59;;;;;;;16.27;7.83;;;;;;;20.23;82.87;101624.28;5071936;28;20650;-73
2022/07/21 04:27:25;;;;;;;10.87;7.13;;;;;;;20.31;82.55;101630.31;5089872;28;20215;-74
2022/07/21 04:29:51;;;;;;;16.60;8.00;;;;;;;20.34;82.33;101625.94;5089890;28;20196;-74
2022/07/21 04:32:16;;;;;;;14.23;7.30;;;;;;;20.40;82.24;101617.22;5090079;28;20219;-74
2022/07/21 04:34:41;;;;;;;11.83;7.10;;;;;;;20.46;82.09;101612.78;5090075;28;20183;-73
2022/07/21 04:37:07;;;;;;;13.07;6.47;;;;;;;20.48;81.72;101611.06;5089821;28;20172;-73
2022/07/21 04:39:32;;;;;;;15.83;6.90;;;;;;;20.47;81.74;101613.66;5090035;28;20928;-73
2022/07/21 04:41:58;;;;;;;13.97;6.43;;;;;;;20.52;80.99;101611.88;5089940;28;20184;-74
2022/07/21 04:44:23;;;;;;;17.30;6.90;;;;;;;20.55;81.49;101596.25;5089760;28;20204;-73
2022/07/21 04:46:49;;;;;;;13.70;6.90;;;;;;;20.56;81.70;101579.75;5071375;28;20847;-73
2022/07/21 04:49:14;;;;;;;16.03;7.33;;;;;;;20.54;81.95;101545.94;5089966;28;20682;-74
2022/07/21 04:51:40;;;;;;;14.47;6.70;;;;;;;20.52;82.14;101497.38;5090190;28;20189;-70
2022/07/21 04:54:06;;;;;;;14.00;7.73;;;;;;;20.54;81.62;101504.28;5090095;28;20195;-74
2022/07/21 04:56:34;;;;;;;9.93;6.23;;;;;;;20.65;80.44;101520.66;5089628;28;20195;-72
2022/07/21 04:59:00;;;;;;;11.67;6.50;;;;;;;20.75;79.63;101514.47;5084844;28;20205;-74
2022/07/21 05:01:26;;;;;;;13.13;7.00;;;;;;;20.89;79.29;101507.38;5090613;28;20313;-74
2022/07/21 05:03:51;;;;;;;10.43;5.83;;;;;;;21.01;77.78;101515.03;5071528;28;20317;-73
2022/07/21 05:06:16;;;;;;;12.77;6.37;;;;;;;21.11;77.62;101521.88;5088666;28;20180;-72
2022/07/21 05:08:42;;;;;;;13.70;6.10;;;;;;;21.17;77.11;101515.72;5070839;28;20798;-74
2022/07/21 05:11:08;;;;;;;11.33;5.30;;;;;;;21.22;75.66;101513.91;5077960;28;20276;-74
2022/07/21 05:13:33;;;;;;;13.03;5.60;;;;;;;21.26;75.31;101531.22;5068745;28;20208;-72
2022/07/21 05:15:58;;;;;;;11.30;4.87;;;;;;;21.26;74.53;101528.63;5067343;28;20707;-72
2022/07/21 05:18:24;;;;;;;9.10;5.00;;;;;;;21.22;74.92;101525.19;5070545;28;20195;-74
2022/07/21 05:20:49;;;;;;;10.30;4.90;;;;;;;21.22;74.51;101519.13;5089092;28;20635;-71
2022/07/21 05:23:15;;;;;;;10.80;4.60;;;;;;;21.19;74.34;101507.00;5088907;28;20224;-72
2022/07/21 05:25:40;;;;;;;9.47;4.77;;;;;;;21.20;74.05;101508.75;5089975;28;20194;-73
2022/07/21 05:28:06;;;;;;;11.60;5.03;;;;;;;21.21;74.09;101501.78;5093063;28;20211;-73
2022/07/21 05:30:31;;;;;;;8.77;4.47;;;;;;;21.27;73.63;101509.50;5092792;28;20544;-72
2022/07/21 05:32:57;;;;;;;9.17;4.67;;;;;;;21.33;73.63;101496.41;5093495;28;20250;-73
2022/07/21 05:35:22;;;;;;;10.60;4.73;;;;;;;21.37;73.04;101492.88;5093327;28;20241;-73
2022/07/21 05:37:48;;;;;;;11.70;5.17;;;;;;;21.40;72.87;101493.69;5093235;28;20185;-72
2022/07/21 05:40:14;;;;;;;7.70;4.57;;;;;;;21.48;72.34;101493.56;5108818;28;20277;-72
2022/07/21 05:42:40;;;;;;;9.17;4.30;;;;;;;21.69;71.26;101506.34;5093443;28;20184;-71
2022/07/21 05:45:06;;;;;;;10.07;4.30;;;;;;;21.76;70.93;101539.25;5074997;28;20216;-72
2022/07/21 05:47:31;;;;;;;8.20;4.50;;;;;;;21.75;70.64;101571.44;5092753;28;20252;-73
2022/07/21 05:49:57;;;;;;;10.00;3.97;;;;;;;21.71;70.13;101595.81;5093135;28;20290;-73
2022/07/21 05:52:23;;;;;;;10.27;4.40;;;;;;;21.67;70.56;101609.75;5074872;28;20188;-73
2022/07/21 05:54:49;;;;;;;7.07;4.13;;;;;;;21.64;71.46;101617.59;5093044;28;20180;-73
2022/07/21 05:57:14;;;;;;;10.20;5.03;;;;;;;21.51;72.37;101635.16;5092878;28;20600;-71
2022/07/21 05:59:39;;;;;;;9.23;4.73;;;;;;;21.48;72.21;101648.25;5092998;28;20617;-72
2022/07/21 06:02:05;;;;;;;11.00;4.63;;;;;;;21.46;72.56;101633.50;5092910;28;20619;-73
2022/07/21 06:04:31;;;;;;;8.43;4.70;;;;;;;21.48;72.95;101616.97;5092855;28;20192;-72
2022/07/21 06:06:56;;;;;;;9.60;4.73;;;;;;;21.54;72.67;101606.44;5092581;28;20184;-71
2022/07/21 06:09:22;;;;;;;8.07;4.17;;;;;;;21.53;72.60;101568.22;5074365;28;20230;-73
2022/07/21 06:11:47;;;;;;;10.20;4.77;;;;;;;21.57;74.54;101559.50;5092743;28;20239;-73
2022/07/21 06:14:13;;;;;;;13.47;5.87;;;;;;;21.53;74.85;101573.44;5074746;28;20203;-72
2022/07/21 06:16:38;;;;;;;12.67;5.07;;;;;;;21.54;74.84;101587.31;5092530;28;20190;-73
2022/07/21 06:19:06;;;;;;;11.37;5.30;;;;;;;21.46;75.94;101595.25;5092570;28;20311;-72
2022/07/21 06:21:32;;;;;;;9.73;5.10;;;;;;;21.40;76.30;101591.84;5092555;28;20192;-72
2022/07/21 06:23:58;;;;;;;10.33;5.40;;;;;;;21.44;77.18;101586.59;5092473;28;20194;-72
2022/07/21 06:26:23;;;;;;;7.37;5.60;;;;;;;21.41;77.49;101581.41;5069377;28;20180;-73
2022/07/21 06:28:49;;;;;;;12.57;6.10;;;;;;;21.38;78.10;101581.44;5061048;28;20595;-73
2022/07/21 06:31:14;;;;;;;11.03;5.83;;;;;;;21.36;77.68;101583.22;5092321;28;20202;-71
2022/07/21 06:33:39;;;;;;;11.60;5.97;;;;;;;21.40;77.70;101586.63;5092326;28;20212;-71
2022/07/21 06:36:06;;;;;;;10.77;6.13;;;;;;;21.37;78.03;101568.47;5064093;28;20192;-69
2022/07/21 06:38:32;;;;;;;11.47;6.10;;;;;;;21.34;79.26;101532.88;5058795;28;20323;-70
2022/07/21 06:40:57;;;;;;;10.33;5.83;;;;;;;21.35;80.45;101523.28;5088435;28;20626;-72
2022/07/21 06:43:23;;;;;;;16.40;6.47;;;;;;;21.31;81.07;101514.66;5074157;28;20197;-71
2022/07/21 06:45:48;;;;;;;12.33;6.33;;;;;;;21.32;81.67;101510.28;5073990;28;20192;-72
2022/07/21 06:48:14;;;;;;;13.77;7.37;;;;;;;21.22;81.40;101524.31;5088975;28;20208;-73
2022/07/21 06:50:39;;;;;;;18.27;10.20;;;;;;;21.21;81.15;101535.63;5091846;28;20228;-72
2022/07/21 06:53:05;;;;;;;21.53;10.67;;;;;;;21.22;81.93;101532.16;5088887;28;20601;-70
2022/07/21 06:55:31;;;;;;;15.70;9.03;;;;;;;21.18;82.21;101538.28;5074003;28;20199;-70
2022/07/21 06:57:57;;;;;;;17.57;9.07;;;;;;;21.18;82.00;101548.69;5091685;28;20169;-71
2022/07/21 07:00:22;;;;;;;14.53;7.53;;;;;;;21.06;83.34;101577.53;5091707;28;20620;-70
2022/07/21 07:02:48;;;;;;;12.43;8.23;;;;;;;20.95;83.87;101592.38;5092240;28;20188;-70
2022/07/21 07:05:13;;;;;;;15.33;9.23;;;;;;;20.84;85.14;101602.91;5091736;28;20589;-71
2022/07/21 07:07:39;;;;;;;13.20;9.00;;;;;;;20.82;85.85;101603.81;5091252;28;20212;-69
2022/07/21 07:10:05;;;;;;;22.73;10.27;;;;;;;20.66;86.41;101604.81;5092410;28;20322;-71
2022/07/21 07:12:30;;;;;;;20.37;11.27;;;;;;;20.69;87.38;101602.19;5094114;28;20188;-71
2022/07/21 07:14:56;;;;;;;17.97;10.17;;;;;;;20.75;87.22;101604.72;5090992;28;20203;-72
2022/07/21 07:17:21;;;;;;;16.37;10.67;;;;;;;20.76;87.92;101632.47;5090785;28;20192;-72
2022/07/21 07:19:47;;;;;;;12.57;9.83;;;;;;;20.62;88.38;101637.84;5090919;28;20213;-71
2022/07/21 07:22:13;;;;;;;15.97;11.30;;;;;;;20.53;89.00;101653.53;5091205;28;20702;-71
2022/07/21 07:24:39;;;;;;;18.00;11.30;;;;;;;20.49;90.07;101659.63;5073089;28;20184;-71
2022/07/21 07:27:05;;;;;;;18.50;11.37;;;;;;;20.39;90.78;101659.72;5090644;28;20842;-71
2022/07/21 07:29:31;;;;;;;24.13;12.80;;;;;;;20.28;91.97;101652.00;5072719;28;20211;-70
2022/07/21 07:31:57;;;;;;;22.40;13.43;;;;;;;20.35;91.63;101652.78;5091060;28;20686;-71
2022/07/21 07:34:23;;;;;;;19.73;13.90;;;;;;;20.35;91.20;101653.66;5090874;28;20192;-71
2022/07/21 07:36:48;;;;;;;21.17;13.13;;;;;;;20.42;91.36;101649.28;5072566;28;20184;-72
2022/07/21 07:39:15;;;;;;;21.90;13.57;;;;;;;20.50;90.65;101645.72;5090395;28;20200;-71
2022/07/21 07:41:41;;;;;;;19.63;12.10;;;;;;;20.74;88.97;101649.88;5090608;28;20182;-73
2022/07/21 07:44:07;;;;;;;20.97;12.53;;;;;;;20.64;88.83;101669.91;5089112;28;20183;-72
2022/07/21 07:46:32;;;;;;;19.73;13.63;;;;;;;20.74;88.92;101686.34;5051490;28;20220;-72
2022/07/21 07:48:59;;;;;;;20.30;13.43;;;;;;;20.86;89.73;101692.28;5078655;28;20721;-73
2022/07/21 07:51:25;;;;;;;19.27;12.97;;;;;;;21.01;88.83;101694.78;5096122;28;20825;-73
2022/07/21 07:53:50;;;;;;;18.60;13.33;;;;;;;21.01;87.96;101697.38;5075936;28;20270;-72
2022/07/21 07:56:16;;;;;;;21.03;13.53;;;;;;;21.10;87.95;101693.84;5110285;28;20179;-72
2022/07/21 07:58:41;;;;;;;17.47;12.67;;;;;;;21.26;88.23;101695.41;5101758;28;20193;-72
2022/07/21 08:01:07;;;;;;;16.97;12.83;;;;;;;21.07;87.70;101712.97;5090000;28;20242;-72
2022/07/21 08:03:32;;;;;;;18.50;11.90;;;;;;;21.24;87.21;101705.84;5089849;28;20226;-72
2022/07/21 08:06:02;;;;;;;18.27;13.43;;;;;;;21.35;86.88;101710.94;5089943;28;20637;-72
2022/07/21 08:08:28;;;;;;;18.07;12.20;;;;;;;21.56;86.85;101706.34;5089298;28;20212;-72
2022/07/21 08:10:53;;;;;;;17.73;12.10;;;;;;;21.70;84.85;101703.63;5071539;28;20184;-72
2022/07/21 08:13:19;;;;;;;17.23;12.20;;;;;;;21.72;84.16;101705.34;5090168;28;20176;-72
2022/07/21 08:15:46;;;;;;;15.03;11.70;;;;;;;21.87;83.38;101712.09;5089925;28;20987;-71
2022/07/21 08:18:12;;;;;;;18.67;12.10;;;;;;;21.68;83.42;101715.78;5089674;28;20191;-72
2022/07/21 08:20:39;;;;;;;18.10;12.60;;;;;;;21.77;83.42;101707.88;5089478;28;20287;-72
2022/07/21 08:23:05;;;;;;;16.20;11.83;;;;;;;21.93;82.67;101710.25;5089631;28;20267;-73
2022/07/21 08:25:31;;;;;;;18.17;12.40;;;;;;;22.04;82.51;101712.72;5089789;28;20237;-70
2022/07/21 08:27:57;;;;;;;19.93;13.33;;;;;;;22.17;81.77;101702.13;5071171;28;20204;-73
2022/07/21 08:30:22;;;;;;;19.60;12.90;;;;;;;22.47;80.93;101692.13;5070323;28;20675;-73
2022/07/21 08:32:48;;;;;;;20.50;12.20;;;;;;;22.76;80.03;101695.13;5069552;28;20187;-73
2022/07/21 08:35:13;;;;;;;18.17;12.00;;;;;;;23.02;79.19;101693.78;5089402;28;20234;-74
2022/07/21 08:37:40;;;;;;;16.50;11.50;;;;;;;23.27;78.14;101692.50;5070907;28;20630;-74
2022/07/21 08:40:08;;;;;;;18.90;12.80;;;;;;;23.56;76.85;101692.78;5097434;28;20689;-74
2022/07/21 08:42:35;;;;;;;19.70;12.97;;;;;;;23.54;76.60;101704.16;5095224;28;20835;-74
2022/07/21 08:45:00;;;;;;;21.60;13.67;;;;;;;23.12;78.26;101710.19;5089316;28;20621;-71
2022/07/21 08:47:27;;;;;;;18.40;15.07;;;;;;;23.09;78.01;101711.09;5070730;28;20248;-73
2022/07/21 08:49:54;;;;;;;20.47;13.60;;;;;;;23.23;78.06;101705.63;5080570;28;20236;-74
2022/07/21 08:52:20;;;;;;;21.77;15.50;;;;;;;23.19;78.88;101704.84;5089204;28;20188;-74
2022/07/21 08:54:45;;;;;;;23.87;15.30;;;;;;;23.25;77.73;101703.88;5068344;28;20276;-73
2022/07/21 08:57:10;;;;;;;20.33;14.00;;;;;;;23.29;78.22;101713.38;5109160;28;20291;-72
2022/07/21 08:59:36;;;;;;;25.40;15.47;;;;;;;23.36;77.25;101712.38;5109312;28;20673;-74
2022/07/21 09:02:03;;;;;;;22.77;15.13;;;;;;;23.63;76.79;101717.06;5090596;28;20191;-74
2022/07/21 09:04:31;;;;;;;22.57;16.73;;;;;;;23.41;77.19;101705.28;5109314;28;20183;-74
2022/07/21 09:07:02;;;;;;;21.27;16.13;;;;;;;23.55;77.13;101708.50;5109013;28;20191;-74
2022/07/21 09:09:29;;;;;;;21.87;16.93;;;;;;;23.75;76.09;101707.22;5072545;28;20249;-73
2022/07/21 09:11:56;;;;;;;25.20;16.83;;;;;;;24.08;75.34;101713.53;5070596;28;20188;-73
2022/07/21 09:14:24;;;;;;;21.80;15.43;;;;;;;24.53;73.68;101710.69;5077457;28;20188;-72
2022/07/21 09:16:55;;;;;;;20.53;16.87;;;;;;;24.51;72.58;101719.50;5087999;28;20192;-73
2022/07/21 09:19:26;;;;;;;23.45;16.58;;;;;;;25.07;71.18;101712.00;5053813;28;20204;-75
2022/07/21 09:21:54;;;;;;;20.83;15.80;;;;;;;24.89;71.25;101715.09;5088423;28;20184;-74
2022/07/21 09:24:26;;;;;;;19.93;15.53;;;;;;;24.77;71.61;101718.00;5088739;28;20535;-74
2022/07/21 09:27:14;;;;;;;21.17;15.73;;;;;;;24.50;73.29;101723.88;5088565;28;20249;-74
2022/07/21 09:29:43;;;;;;;23.03;17.13;;;;;;;24.25;73.90;101730.56;5089033;28;20200;-74
2022/07/21 09:32:40;;;;;;;18.40;15.20;;;;;;;24.69;72.25;101711.22;5088640;28;20180;-74
2022/07/21 09:35:14;;;;;;;23.53;17.53;;;;;;;24.80;70.80;101717.94;5087285;28;20239;-73
2022/07/21 09:37:41;;;;;;;22.97;18.53;;;;;;;24.53;70.80;101718.56;5088397;28;20187;-73
2022/07/21 09:40:09;;;;;;;22.13;19.17;;;;;;;24.75;70.38;101718.94;5095369;28;20243;-74
2022/07/21 09:42:43;;;;;;;21.13;17.40;;;;;;;24.71;71.64;101717.28;5084452;28;20183;-72
2022/07/21 09:45:11;;;;;;;23.83;17.60;;;;;;;25.31;69.54;101707.88;5106928;28;20168;-72
2022/07/21 09:47:38;;;;;;;21.50;17.88;;;;;;;26.25;65.46;101718.22;5096602;28;20208;-73
2022/07/21 09:50:07;;;;;;;19.70;14.60;;;;;;;26.87;63.62;101708.34;5106888;28;20204;-73
2022/07/21 09:52:53;;;;;;;18.48;16.23;;;;;;;26.78;62.79;101706.03;5109124;28;20187;-73
2022/07/21 09:55:19;;;;;;;19.10;16.23;;;;;;;26.22;64.39;101699.94;5109036;28;20263;-73
2022/07/21 09:57:45;;;;;;;24.17;16.75;;;;;;;25.69;66.75;101705.06;5109175;28;20254;-74
2022/07/21 10:00:16;;;;;;;19.55;17.08;;;;;;;25.67;66.25;101710.34;5097979;28;20235;-73
2022/07/21 10:02:43;;;;;;;18.40;16.38;;;;;;;26.39;63.46;101699.41;5088792;28;20177;-73
2022/07/21 10:05:12;;;;;;;18.90;14.95;;;;;;;27.38;60.54;101698.66;5070439;28;20223;-72
2022/07/21 10:07:40;;;;;;;17.00;15.25;;;;;;;27.41;60.37;101694.19;5088281;28;20209;-73
2022/07/21 10:10:07;;;;;;;16.45;14.75;;;;;;;27.62;59.25;101697.78;5070059;28;20762;-73
2022/07/21 10:12:33;;;;;;;20.20;15.32;;;;;;;27.76;59.89;101692.88;5089517;28;20549;-73
2022/07/21 10:14:59;;;;;;;18.08;15.60;;;;;;;27.48;59.51;101706.19;5092130;28;20180;-73
2022/07/21 10:17:25;;;;;;;15.55;13.27;;;;;;;27.60;59.20;101696.97;5091952;28;20196;-73
2022/07/21 10:19:57;;;;;;;19.85;14.20;;;;;;;27.65;59.86;101702.94;5073851;28;20220;-73
2022/07/21 10:22:29;;;;;;;15.63;14.02;;;;;;;28.15;57.39;101708.03;5092097;28;20188;-73
2022/07/21 10:24:55;;;;;;;17.02;13.40;;;;;;;28.79;54.61;101714.25;5092335;28;20659;-72
2022/07/21 10:27:20;;;;;;;17.73;13.27;;;;;;;28.47;54.70;101710.28;5091753;28;20208;-73
2022/07/21 10:30:00;;;;;;;13.70;12.25;;;;;;;28.23;55.65;101703.31;5091915;28;20640;-72
2022/07/21 10:32:36;;;;;;;14.88;11.90;;;;;;;28.66;54.35;101703.34;5092008;28;20676;-73
2022/07/21 10:35:25;;;;;;;14.52;13.02;;;;;;;28.75;53.13;101710.00;5091902;28;20195;-73
2022/07/21 10:37:51;;;;;;;16.67;13.02;;;;;;;28.15;55.31;101715.94;5076606;28;20200;-73
2022/07/21 10:40:19;;;;;;;17.08;14.27;;;;;;;27.51;57.46;101723.66;5094879;28;20282;-73
2022/07/21 10:42:45;;;;;;;20.05;14.45;;;;;;;27.25;58.77;101716.69;5095716;28;20193;-72
2022/07/21 10:45:33;;;;;;;19.75;14.00;;;;;;;27.18;59.03;101725.72;5091463;28;20192;-71
2022/07/21 10:48:01;;;;;;;17.95;14.80;;;;;;;27.05;58.93;101724.38;5077638;28;20236;-73
2022/07/21 10:50:31;;;;;;;16.65;13.93;;;;;;;27.00;59.04;101717.53;5091516;28;20248;-72
2022/07/21 10:52:59;;;;;;;14.80;12.75;;;;;;;26.89;59.65;101711.81;5091517;28;20195;-72
2022/07/21 10:55:27;;;;;;;14.55;13.05;;;;;;;26.84;59.65;101716.34;5091362;28;20187;-72
2022/07/21 10:58:16;;;;;;;15.90;13.82;;;;;;;26.44;60.85;101711.47;5091200;28;20242;-72
2022/07/21 11:01:13;;;;;;;15.98;13.55;;;;;;;26.08;61.87;101717.91;5091064;28;20227;-71
2022/07/21 11:03:41;;;;;;;15.07;10.82;;;;;;;26.19;61.30;101714.91;5081839;28;20200;-71
2022/07/21 11:06:09;;;;;;;13.05;11.75;;;;;;;25.93;62.70;101720.13;5091362;28;20267;-72
2022/07/21 11:08:42;;;;;;;13.20;11.82;;;;;;;25.96;63.30;101720.88;5091192;28;20231;-72
2022/07/21 11:11:15;;;;;;;16.77;11.02;;;;;;;26.08;62.90;101717.91;5091119;28;20209;-71
2022/07/21 11:14:02;;;;;;;13.52;10.63;;;;;;;25.90;63.45;101728.03;5091466;28;20196;-73